| Date | Time | Temp. (oF) | Dew Point (oF) | Rel. Hum. (%) | Press. (in.) | Wind Dir. | Wind Speed (mph) | Hourly Rainfall (in.) |
|
|---|---|---|---|---|---|---|---|---|---|
| 1 | 11/07 | 00:00 | 50 | 47 | 92 | 29.89 | SSW | 3 | 0.00 |
| 2 | 11/06 | 23:00 | 52 | 50 | 93 | 29.86 | SSW | 2 | 0.00 |
| 3 | 11/06 | 22:00 | 53 | 51 | 93 | 29.85 | SSW | 4 | 0.00 |
| 4 | 11/06 | 21:00 | 53 | 52 | 98 | 29.82 | SSW | 6 | 0.00 |
| 5 | 11/06 | 20:00 | 52 | 51 | 98 | 29.81 | S | 3 | 0.00 |
| 6 | 11/06 | 19:00 | 53 | 51 | 96 | 29.79 | S | 2 | 0.00 |
| 7 | 11/06 | 18:00 | 56 | 54 | 94 | 29.78 | S | 4 | 0.00 |
| 8 | 11/06 | 17:00 | 58 | 56 | 94 | 29.76 | S | 4 | 0.00 |
| 9 | 11/06 | 16:00 | 57 | 56 | 98 | 29.76 | S | 5 | 0.01 |
| 10 | 11/06 | 15:00 | 57 | 56 | 97 | 29.75 | S | 3 | 0.01 |
| 11 | 11/06 | 14:00 | 58 | 57 | 97 | 29.74 | SSW | 4 | 0.00 |
| 12 | 11/06 | 13:00 | 57 | 57 | 100 | 29.74 | E | 3 | 0.00 |
| 13 | 11/06 | 12:00 | 55 | 54 | 100 | 29.80 | ESE | 2 | 0.02 |
| 14 | 11/06 | 11:00 | 54 | 54 | 100 | 29.86 | S | 4 | 0.18 |
| 15 | 11/06 | 10:00 | 53 | 53 | 100 | 29.85 | SSW | 1 | 0.21 |
| 16 | 11/06 | 09:00 | 53 | 53 | 100 | 29.86 | S | 3 | 0.11 |
| 17 | 11/06 | 08:00 | 52 | 51 | 100 | 29.87 | SSE | 1 | 0.00 |
| 18 | 11/06 | 07:00 | 51 | 50 | 100 | 29.88 | SE | 2 | 0.00 |
| 19 | 11/06 | 06:00 | 50 | 50 | 100 | 29.90 | E | 7 | 0.00 |
| 20 | 11/06 | 05:00 | 50 | 50 | 100 | 29.95 | E | 5 | 0.00 |
| 21 | 11/06 | 04:00 | 49 | 49 | 100 | 29.95 | E | 7 | 0.01 |
| 22 | 11/06 | 03:00 | 50 | 50 | 100 | 29.98 | ESE | 3 | 0.00 |
| 23 | 11/06 | 02:00 | 49 | 49 | 100 | 30.00 | NE | 3 | 0.00 |
| 24 | 11/06 | 01:00 | 49 | 49 | 100 | 30.02 | E | 3 | 0.00 |